Buena Reina — 9V9940 — position and weather

sailwx.info

Track history (hours):
 
Tides and Currents Weather Stations Pressure Air Temp Water Temp Dewpoint Dewpoint Depression Visibility Wind Speed Wind Dir Waves Ship Positions

Buena Reina

Last reported at 2018-Feb-20 11:16 UTC. Time now 2018-Feb-21 09:12 UTC.
Position N 30°30' E 121°40'.

Length 96 m; draft 5 m.

Type: Tanker. MMSI: 566712000.

Date/timePositionNaut miles runAvg speedWind from/ knotsBaromVisibWave heightAir tempDewpointWater temp
2018-Feb-20 11:16N 30°30' E 121°40'310.2
2018-Feb-20 11:00N 30°30' E 121°44'510.7
2018-Feb-20 10:30N 30°30' E 121°50'810.4
2018-Feb-20 09:44N 30°31' E 121°59'510.8
2018-Feb-20 09:14N 30°32' E 122°05'  
2018-Feb-17 13:57N 34°27' E 137°57'4 6.6
2018-Feb-17 13:19N 34°27' E 138°02'3 6.7
2018-Feb-17 12:54N 34°27' E 138°05'2 5.9
2018-Feb-17 12:30N 34°28' E 138°08'3 5.3
2018-Feb-17 11:56N 34°29' E 138°11'2 4.9
2018-Feb-17 11:27N 34°30' E 138°14'2 5.4
2018-Feb-17 10:59N 34°30' E 138°17'3 5.7
2018-Feb-17 10:26N 34°31' E 138°21'3 6.4
2018-Feb-17 09:54N 34°31' E 138°25'3 6.7
2018-Feb-17 09:24N 34°31' E 138°29'2 6.3
2018-Feb-17 09:00N 34°32' E 138°32'4 6.3
2018-Feb-17 08:26N 34°32' E 138°36'3 6.4
2018-Feb-17 07:59N 34°32' E 138°40'3 6.1
2018-Feb-17 07:25N 34°32' E 138°44'2 5.6
2018-Feb-17 07:00N 34°32' E 138°47'4 5.8
2018-Feb-17 06:21N 34°31' E 138°51'2 5.8
2018-Feb-17 06:00N 34°32' E 138°54'3 6.4
2018-Feb-17 05:30N 34°32' E 138°57'3 5.8
2018-Feb-17 05:00N 34°32' E 139°01'2 4.9
2018-Feb-17 04:30N 34°34' E 139°03'4 7.6
2018-Feb-17 04:00N 34°37' E 139°05'4 7.7
2018-Feb-17 03:30N 34°41' E 139°08'4 8.3
2018-Feb-17 03:00N 34°44' E 139°11'5 9.2
2018-Feb-17 02:29N 34°48' E 139°14'510.2
2018-Feb-17 02:00N 34°51' E 139°19'611.3
2018-Feb-17 01:30N 34°54' E 139°24'711.8
2018-Feb-17 00:57N 34°58' E 139°31'613.1
2018-Feb-17 00:28N 35°02' E 139°37'613.5
2018-Feb-17 00:00N 35°06' E 139°43'612.4
2018-Feb-16 23:30N 35°11' E 139°46'611.5
2018-Feb-16 23:00N 35°17' E 139°45'612.6
2018-Feb-16 22:30N 35°23' E 139°42'612.7
2018-Feb-16 22:00N 35°28' E 139°47'3 5.4
2018-Feb-16 21:28N 35°31' E 139°46'0 0.0
2018-Feb-16 20:58N 35°31' E 139°46'0 0.0
2018-Feb-16 20:22N 35°31' E 139°46'0 0.0
2018-Feb-16 19:52N 35°31' E 139°46'0 0.0
2018-Feb-16 19:28N 35°31' E 139°46'0 0.0
2018-Feb-16 18:55N 35°31' E 139°46'0 0.0
2018-Feb-16 18:28N 35°31' E 139°46'0 0.0
2018-Feb-16 17:58N 35°31' E 139°46'0 0.0
2018-Feb-16 17:22N 35°31' E 139°46'0 0.0
2018-Feb-16 16:55N 35°31' E 139°46'0 0.0
2018-Feb-16 16:22N 35°31' E 139°46'0 0.0
2018-Feb-16 15:58N 35°31' E 139°46'0 0.0
2018-Feb-16 15:28N 35°31' E 139°46'0 0.0
2018-Feb-16 14:55N 35°31' E 139°46'0 0.0
2018-Feb-16 14:22N 35°31' E 139°46'0 0.0
2018-Feb-16 13:58N 35°31' E 139°46'0 0.0
2018-Feb-16 13:28N 35°31' E 139°46'0 0.0
2018-Feb-16 12:55N 35°31' E 139°46'0 0.0
2018-Feb-16 12:28N 35°31' E 139°46'0 0.0
2018-Feb-16 11:55N 35°31' E 139°46'0 0.0
2018-Feb-16 11:25N 35°31' E 139°46'0 0.0
2018-Feb-16 10:55N 35°31' E 139°46'0 0.0
2018-Feb-16 10:28N 35°31' E 139°46'0 0.0
2018-Feb-16 09:58N 35°31' E 139°46'0 0.0
2018-Feb-16 09:28N 35°31' E 139°46'0 0.0
2018-Feb-16 08:55N 35°31' E 139°46'0 0.0
2018-Feb-16 08:16N 35°31' E 139°46'0 0.0
2018-Feb-16 07:52N 35°31' E 139°46'0 0.0
2018-Feb-16 07:28N 35°31' E 139°46'0 0.0
2018-Feb-16 06:58N 35°31' E 139°46'0 0.0
2018-Feb-16 06:28N 35°31' E 139°46'0 0.0
2018-Feb-16 05:58N 35°31' E 139°46'0 0.0
2018-Feb-16 05:25N 35°31' E 139°46'0 0.0
2018-Feb-16 04:55N 35°31' E 139°46'0 0.0
2018-Feb-16 04:17N 35°31' E 139°46'1 2.7
2018-Feb-16 04:01N 35°30' E 139°45'4 6.9
2018-Feb-16 03:30N 35°28' E 139°42'2 3.5
2018-Feb-16 03:01N 35°28' E 139°44'0 0.1
2018-Feb-16 02:28N 35°28' E 139°44'0 0.0
2018-Feb-16 01:58N 35°28' E 139°44'0 0.0
2018-Feb-16 01:28N 35°28' E 139°44'0 0.0
2018-Feb-16 00:58N 35°28' E 139°44'0 0.0
2018-Feb-16 00:28N 35°28' E 139°44'0 0.0
2018-Feb-15 23:58N 35°28' E 139°44'0 0.0
2018-Feb-15 23:28N 35°28' E 139°44'0 0.0
2018-Feb-15 22:58N 35°28' E 139°44'0 0.1
2018-Feb-15 22:28N 35°28' E 139°44'0 0.0
2018-Feb-15 21:58N 35°28' E 139°44'0 0.0
2018-Feb-15 21:28N 35°28' E 139°44'0 0.0
2018-Feb-15 20:58N 35°28' E 139°44'0 0.0
2018-Feb-15 20:28N 35°28' E 139°44'0 0.0
2018-Feb-15 19:58N 35°28' E 139°44'0 0.0
2018-Feb-15 19:28N 35°28' E 139°44'0 0.0
2018-Feb-15 18:58N 35°28' E 139°44'0 0.0
2018-Feb-15 18:28N 35°28' E 139°44'0 0.0
2018-Feb-15 17:58N 35°28' E 139°44'0 0.0
2018-Feb-15 17:28N 35°28' E 139°44'0 0.0
2018-Feb-15 16:58N 35°28' E 139°44'0 0.0
2018-Feb-15 16:28N 35°28' E 139°44'0 0.0
2018-Feb-15 15:58N 35°28' E 139°44'0 0.8
2018-Feb-15 15:30N 35°27' E 139°44'5 9.8
2018-Feb-15 15:00N 35°23' E 139°46'611.5
2018-Feb-15 14:30N 35°17' E 139°45'611.8
2018-Feb-15 14:01N 35°11' E 139°47'612.7
2018-Feb-15 13:30N 35°05' E 139°45'1410.3
2018-Feb-15 12:07N 34°51' E 139°47'112.1
2018-Feb-15 12:01N 34°51' E 139°48'813.5
2018-Feb-15 11:23N 34°51' E 139°58'513.0
2018-Feb-15 10:59N 34°54' E 140°04'612.5
2018-Feb-15 10:30N 34°58' E 140°10'3 0.1
2018-Feb-13 22:01N 34°55' E 140°09'013.1
2018-Feb-13 22:00N 34°55' E 140°09'3814.0
2018-Feb-13 19:19N 34°38' E 139°28'614.9
2018-Feb-13 18:56N 34°36' E 139°22'714.3
2018-Feb-13 18:28N 34°34' E 139°14'714.6
2018-Feb-13 18:00N 34°31' E 139°07'714.6
2018-Feb-13 17:30N 34°28' E 138°59'913.9
2018-Feb-13 16:53N 34°24' E 138°49'614.7
2018-Feb-13 16:27N 34°22' E 138°42'34112.1
2018-Feb-12 12:19N 33°16' E 131°60'814.0
2018-Feb-12 11:45N 33°23' E 131°56'414.2
2018-Feb-12 11:29N 33°26' E 131°54'713.9
2018-Feb-12 11:00N 33°32' E 131°50'713.6
2018-Feb-12 10:29N 33°39' E 131°46'713.7
2018-Feb-12 10:00N 33°45' E 131°43'712.8
2018-Feb-12 09:29N 33°47' E 131°35'713.7
2018-Feb-12 09:00N 33°48' E 131°27'713.5
2018-Feb-12 08:30N 33°50' E 131°20'713.7
2018-Feb-12 08:01N 33°51' E 131°12'713.6
2018-Feb-12 07:31N 33°55' E 131°05'612.4
2018-Feb-12 07:00N 33°58' E 130°58'510.6
2018-Feb-12 06:30N 33°56' E 130°53'713.2
2018-Feb-12 06:01N 34°02' E 130°49'713.5
2018-Feb-12 05:30N 34°07' E 130°44'713.1
2018-Feb-12 05:00N 34°12' E 130°39'713.2
2018-Feb-12 04:31N 34°17' E 130°34'713.3
2018-Feb-12 04:00N 34°22' E 130°29'  
Track history (hours):
 
Tides and Currents Weather Stations Pressure Air Temp Water Temp Dewpoint Dewpoint Depression Visibility Wind Speed Wind Dir Waves Ship Positions

Buena Reina

Last reported at 2018-Feb-20 11:16 UTC. Time now 2018-Feb-21 09:12 UTC.
Position N 30°30' E 121°40'.

Length 96 m; draft 5 m.

Type: Tanker. MMSI: 566712000.

Date/timePositionNaut miles runAvg speedWind from/ knotsBaromVisibWave heightAir tempDewpointWater temp
2018-Feb-20 11:16N 30°30' E 121°40'310.2
2018-Feb-20 11:00N 30°30' E 121°44'510.7
2018-Feb-20 10:30N 30°30' E 121°50'810.4
2018-Feb-20 09:44N 30°31' E 121°59'510.8
2018-Feb-20 09:14N 30°32' E 122°05'  
2018-Feb-17 13:57N 34°27' E 137°57'4 6.6
2018-Feb-17 13:19N 34°27' E 138°02'3 6.7
2018-Feb-17 12:54N 34°27' E 138°05'2 5.9
2018-Feb-17 12:30N 34°28' E 138°08'3 5.3
2018-Feb-17 11:56N 34°29' E 138°11'2 4.9
2018-Feb-17 11:27N 34°30' E 138°14'2 5.4
2018-Feb-17 10:59N 34°30' E 138°17'3 5.7
2018-Feb-17 10:26N 34°31' E 138°21'3 6.4
2018-Feb-17 09:54N 34°31' E 138°25'3 6.7
2018-Feb-17 09:24N 34°31' E 138°29'2 6.3
2018-Feb-17 09:00N 34°32' E 138°32'4 6.3
2018-Feb-17 08:26N 34°32' E 138°36'3 6.4
2018-Feb-17 07:59N 34°32' E 138°40'3 6.1
2018-Feb-17 07:25N 34°32' E 138°44'2 5.6
2018-Feb-17 07:00N 34°32' E 138°47'4 5.8
2018-Feb-17 06:21N 34°31' E 138°51'2 5.8
2018-Feb-17 06:00N 34°32' E 138°54'3 6.4
2018-Feb-17 05:30N 34°32' E 138°57'3 5.8
2018-Feb-17 05:00N 34°32' E 139°01'2 4.9
2018-Feb-17 04:30N 34°34' E 139°03'4 7.6
2018-Feb-17 04:00N 34°37' E 139°05'4 7.7
2018-Feb-17 03:30N 34°41' E 139°08'4 8.3
2018-Feb-17 03:00N 34°44' E 139°11'5 9.2
2018-Feb-17 02:29N 34°48' E 139°14'510.2
2018-Feb-17 02:00N 34°51' E 139°19'611.3
2018-Feb-17 01:30N 34°54' E 139°24'711.8
2018-Feb-17 00:57N 34°58' E 139°31'613.1
2018-Feb-17 00:28N 35°02' E 139°37'613.5
2018-Feb-17 00:00N 35°06' E 139°43'612.4
2018-Feb-16 23:30N 35°11' E 139°46'611.5
2018-Feb-16 23:00N 35°17' E 139°45'612.6
2018-Feb-16 22:30N 35°23' E 139°42'612.7
2018-Feb-16 22:00N 35°28' E 139°47'3 5.4
2018-Feb-16 21:28N 35°31' E 139°46'0 0.0
2018-Feb-16 20:58N 35°31' E 139°46'0 0.0
2018-Feb-16 20:22N 35°31' E 139°46'0 0.0
2018-Feb-16 19:52N 35°31' E 139°46'0 0.0
2018-Feb-16 19:28N 35°31' E 139°46'0 0.0
2018-Feb-16 18:55N 35°31' E 139°46'0 0.0
2018-Feb-16 18:28N 35°31' E 139°46'0 0.0
2018-Feb-16 17:58N 35°31' E 139°46'0 0.0
2018-Feb-16 17:22N 35°31' E 139°46'0 0.0
2018-Feb-16 16:55N 35°31' E 139°46'0 0.0
2018-Feb-16 16:22N 35°31' E 139°46'0 0.0
2018-Feb-16 15:58N 35°31' E 139°46'0 0.0
2018-Feb-16 15:28N 35°31' E 139°46'0 0.0
2018-Feb-16 14:55N 35°31' E 139°46'0 0.0
2018-Feb-16 14:22N 35°31' E 139°46'0 0.0
2018-Feb-16 13:58N 35°31' E 139°46'0 0.0
2018-Feb-16 13:28N 35°31' E 139°46'0 0.0
2018-Feb-16 12:55N 35°31' E 139°46'0 0.0
2018-Feb-16 12:28N 35°31' E 139°46'0 0.0
2018-Feb-16 11:55N 35°31' E 139°46'0 0.0
2018-Feb-16 11:25N 35°31' E 139°46'0 0.0
2018-Feb-16 10:55N 35°31' E 139°46'0 0.0
2018-Feb-16 10:28N 35°31' E 139°46'0 0.0
2018-Feb-16 09:58N 35°31' E 139°46'0 0.0
2018-Feb-16 09:28N 35°31' E 139°46'0 0.0
2018-Feb-16 08:55N 35°31' E 139°46'0 0.0
2018-Feb-16 08:16N 35°31' E 139°46'0 0.0
2018-Feb-16 07:52N 35°31' E 139°46'0 0.0
2018-Feb-16 07:28N 35°31' E 139°46'0 0.0
2018-Feb-16 06:58N 35°31' E 139°46'0 0.0
2018-Feb-16 06:28N 35°31' E 139°46'0 0.0
2018-Feb-16 05:58N 35°31' E 139°46'0 0.0
2018-Feb-16 05:25N 35°31' E 139°46'0 0.0
2018-Feb-16 04:55N 35°31' E 139°46'0 0.0
2018-Feb-16 04:17N 35°31' E 139°46'1 2.7
2018-Feb-16 04:01N 35°30' E 139°45'4 6.9
2018-Feb-16 03:30N 35°28' E 139°42'2 3.5
2018-Feb-16 03:01N 35°28' E 139°44'0 0.1
2018-Feb-16 02:28N 35°28' E 139°44'0 0.0
2018-Feb-16 01:58N 35°28' E 139°44'0 0.0
2018-Feb-16 01:28N 35°28' E 139°44'0 0.0
2018-Feb-16 00:58N 35°28' E 139°44'0 0.0
2018-Feb-16 00:28N 35°28' E 139°44'0 0.0
2018-Feb-15 23:58N 35°28' E 139°44'0 0.0
2018-Feb-15 23:28N 35°28' E 139°44'0 0.0
2018-Feb-15 22:58N 35°28' E 139°44'0 0.1
2018-Feb-15 22:28N 35°28' E 139°44'0 0.0
2018-Feb-15 21:58N 35°28' E 139°44'0 0.0
2018-Feb-15 21:28N 35°28' E 139°44'0 0.0
2018-Feb-15 20:58N 35°28' E 139°44'0 0.0
2018-Feb-15 20:28N 35°28' E 139°44'0 0.0
2018-Feb-15 19:58N 35°28' E 139°44'0 0.0
2018-Feb-15 19:28N 35°28' E 139°44'0 0.0
2018-Feb-15 18:58N 35°28' E 139°44'0 0.0
2018-Feb-15 18:28N 35°28' E 139°44'0 0.0
2018-Feb-15 17:58N 35°28' E 139°44'0 0.0
2018-Feb-15 17:28N 35°28' E 139°44'0 0.0
2018-Feb-15 16:58N 35°28' E 139°44'0 0.0
2018-Feb-15 16:28N 35°28' E 139°44'0 0.0
2018-Feb-15 15:58N 35°28' E 139°44'0 0.8
2018-Feb-15 15:30N 35°27' E 139°44'5 9.8
2018-Feb-15 15:00N 35°23' E 139°46'611.5
2018-Feb-15 14:30N 35°17' E 139°45'611.8
2018-Feb-15 14:01N 35°11' E 139°47'612.7
2018-Feb-15 13:30N 35°05' E 139°45'1410.3
2018-Feb-15 12:07N 34°51' E 139°47'112.1
2018-Feb-15 12:01N 34°51' E 139°48'813.5
2018-Feb-15 11:23N 34°51' E 139°58'513.0
2018-Feb-15 10:59N 34°54' E 140°04'612.5
2018-Feb-15 10:30N 34°58' E 140°10'3 0.1
2018-Feb-13 22:01N 34°55' E 140°09'013.1
2018-Feb-13 22:00N 34°55' E 140°09'3814.0
2018-Feb-13 19:19N 34°38' E 139°28'614.9
2018-Feb-13 18:56N 34°36' E 139°22'714.3
2018-Feb-13 18:28N 34°34' E 139°14'714.6
2018-Feb-13 18:00N 34°31' E 139°07'714.6
2018-Feb-13 17:30N 34°28' E 138°59'913.9
2018-Feb-13 16:53N 34°24' E 138°49'614.7
2018-Feb-13 16:27N 34°22' E 138°42'34112.1
2018-Feb-12 12:19N 33°16' E 131°60'814.0
2018-Feb-12 11:45N 33°23' E 131°56'414.2
2018-Feb-12 11:29N 33°26' E 131°54'713.9
2018-Feb-12 11:00N 33°32' E 131°50'713.6
2018-Feb-12 10:29N 33°39' E 131°46'713.7
2018-Feb-12 10:00N 33°45' E 131°43'712.8
2018-Feb-12 09:29N 33°47' E 131°35'713.7
2018-Feb-12 09:00N 33°48' E 131°27'713.5
2018-Feb-12 08:30N 33°50' E 131°20'713.7
2018-Feb-12 08:01N 33°51' E 131°12'713.6
2018-Feb-12 07:31N 33°55' E 131°05'612.4
2018-Feb-12 07:00N 33°58' E 130°58'510.6
2018-Feb-12 06:30N 33°56' E 130°53'713.2
2018-Feb-12 06:01N 34°02' E 130°49'713.5
2018-Feb-12 05:30N 34°07' E 130°44'713.1
2018-Feb-12 05:00N 34°12' E 130°39'713.2
2018-Feb-12 04:31N 34°17' E 130°34'713.3
2018-Feb-12 04:00N 34°22' E 130°29'  

Dump ship's entire track history